Latest Weather Observations for Cape Flattery

IDQ60801

Issued at 6:05 am EST Monday 22 September 2014 (issued every 30 minutes, with the page automatically refreshed every 10 minutes)

About weather observations | Map of weather stations | Latest weather observations for QLD | Other Formats
Station Details ID: 031213 Name: CAPE FLATTERY Lat: -14.97 Lon: 145.31 Height: 18.5 m
Data from the previous 72 hours. | See also: Recent months at Cape Flattery
Date/Time
EST
Temp
°C
App
Temp
°C
Dew
Point
Rel
Hum
%
Delta-T
°C
Wind Press
QNH
hPa
Press
MSL
hPa
Rain
since 9 am
mm
Dir
 
Spd
km/h
Gust
km/h
Spd
kts
Gust
kts
22/06:00am 23.1 21.5 18.4 75 3.0 SE 24 35 13 19 1015.4 1015.3 0.0
22/05:30am 22.9 21.3 18.4 76 2.8 SE 24 32 13 17 1015.2 1015.1 0.0
22/05:00am 23.1 20.7 18.2 74 3.1 SE 28 41 15 22 1014.8 1014.7 0.0
22/04:30am 23.2 21.2 18.3 74 3.1 SE 26 35 14 19 1014.7 1014.6 0.0
22/04:00am 23.3 21.0 18.4 74 3.1 SE 28 37 15 20 1014.6 1014.5 0.0
22/03:30am 23.3 21.5 18.8 76 2.8 SE 26 39 14 21 1014.6 1014.5 0.0
22/03:00am 23.2 21.4 18.7 76 2.8 SE 26 35 14 19 1014.7 1014.6 0.0
22/02:30am 23.2 21.8 18.9 77 2.7 SE 24 35 13 19 1014.8 1014.7 0.0
22/02:00am 23.3 21.6 19.0 77 2.7 SE 26 37 14 20 1015.2 1015.1 0.0
22/01:30am 23.4 22.0 18.9 76 2.9 SE 24 35 13 19 1015.3 1015.2 0.0
22/01:00am 23.6 21.4 18.7 74 3.1 SE 28 41 15 22 1015.7 1015.6 0.0
22/12:30am 23.6 21.5 18.9 75 3.0 SE 28 41 15 22 1015.9 1015.8 0.0
22/12:00am 24.0 22.0 19.1 74 3.1 SE 28 37 15 20 1016.3 1016.2 0.0
 
Date/Time
EST
Temp
°C
App
Temp
°C
Dew
Point
Rel
Hum
%
Delta-T
°C
Wind Press
QNH
hPa
Press
MSL
hPa
Rain
since 9 am
mm
Dir
 
Spd
km/h
Gust
km/h
Spd
kts
Gust
kts
21/11:30pm 24.1 22.1 19.2 74 3.1 SE 28 35 15 19 1016.7 1016.6 0.0
21/11:00pm 23.7 21.3 19.0 75 3.0 SE 30 39 16 21 1016.8 1016.7 0.0
21/10:30pm 23.8 21.7 18.9 74 3.1 SE 28 37 15 20 1017.0 1016.9 0.0
21/10:00pm 23.8 21.5 19.3 76 2.9 SE 30 39 16 21 1016.9 1016.8 0.0
21/09:30pm 23.8 21.5 19.3 76 2.9 SE 30 39 16 21 1016.8 1016.7 0.0
21/09:00pm 23.9 21.5 19.2 75 3.0 SE 30 39 16 21 1016.7 1016.6 0.0
21/08:30pm 24.0 21.1 19.3 75 3.0 SE 33 44 18 24 1016.3 1016.2 0.0
21/08:00pm 23.9 21.9 19.2 75 3.0 SE 28 41 15 22 1016.2 1016.1 0.0
21/07:30pm 23.9 21.6 19.4 76 2.9 SE 30 41 16 22 1015.9 1015.8 0.0
21/07:00pm 24.0 22.0 19.1 74 3.1 SE 28 43 15 23 1015.7 1015.6 0.0
21/06:30pm 24.0 22.4 19.3 75 3.0 SE 26 35 14 19 1015.3 1015.2 0.0
21/06:00pm 24.3 21.7 18.7 71 3.6 SE 30 39 16 21 1015.0 1014.9 0.0
21/05:30pm 24.7 22.5 18.6 69 3.9 SE 28 35 15 19 1014.7 1014.6 0.0
21/05:00pm 25.3 22.6 18.5 66 4.3 SE 30 39 16 21 1014.5 1014.4 0.0
21/04:30pm 25.6 22.8 18.3 64 4.6 SE 30 39 16 21 1014.3 1014.2 0.0
21/04:00pm 25.8 23.1 18.5 64 4.6 SE 30 39 16 21 1014.3 1014.2 0.0
21/03:30pm 26.0 23.9 18.9 65 4.5 SE 28 41 15 22 1014.4 1014.3 0.0
21/03:00pm 25.9 23.0 18.8 65 4.5 SE 32 41 17 22 1014.4 1014.3 0.0
21/02:30pm 27.0 24.2 19.1 62 5.1 SE 32 41 17 22 1014.8 1014.7 0.0
21/02:00pm 27.7 25.1 19.5 61 5.3 SE 32 41 17 22 1015.2 1015.1 0.0
21/01:30pm 26.5 23.7 19.4 65 4.6 SSE 33 43 18 23 1015.4 1015.3 0.0
21/01:00pm 26.2 23.6 19.8 68 4.1 SSE 33 43 18 23 1016.1 1016.0 0.0
21/12:30pm 27.1 24.0 19.7 64 4.8 SSE 35 44 19 24 1016.5 1016.4 0.0
21/12:00pm 27.0 23.9 19.6 64 4.8 SSE 35 43 19 23 1017.1 1017.0 0.0
21/11:30am 26.3 23.2 18.9 63 4.7 SSE 33 44 18 24 1017.4 1017.3 0.0
21/11:00am 27.3 23.9 19.1 61 5.3 SE 35 44 19 24 1017.5 1017.4 0.0
21/10:30am 26.2 23.9 19.3 65 4.4 SE 30 43 16 23 1017.8 1017.7 0.0
21/10:00am 25.8 23.8 19.2 67 4.2 SE 28 39 15 21 1017.9 1017.8 0.0
21/09:30am 25.5 22.8 19.2 68 4.0 SE 32 41 17 22 1017.7 1017.6 0.0
21/09:00am 25.5 22.8 19.2 68 4.0 SE 32 41 17 22 1017.5 1017.4 0.0
21/08:30am 25.4 22.5 19.3 69 3.9 SE 33 43 18 23 1017.3 1017.2 0.0
21/08:00am 24.8 22.2 19.6 73 3.3 SE 32 43 17 23 1016.7 1016.6 0.0
21/07:30am 24.3 21.8 19.8 76 2.9 SE 32 39 17 21 1016.2 1016.1 0.0
21/07:00am 24.0 22.2 19.5 76 2.9 SE 28 35 15 19 1015.9 1015.8 0.0
21/06:30am 23.8 21.4 19.1 75 3.0 SE 30 41 16 22 1015.6 1015.5 0.0
21/06:00am 23.7 21.6 19.0 75 3.0 SE 28 41 15 22 1015.1 1015.0 0.0
21/05:30am 23.8 21.2 19.5 77 2.8 SE 32 41 17 22 1014.6 1014.5 0.0
21/05:00am 23.8 21.5 19.3 76 2.9 SE 30 41 16 22 1014.2 1014.1 0.0
21/04:30am 23.8 21.8 19.1 75 3.0 SE 28 39 15 21 1014.1 1014.0 0.0
21/04:00am 23.8 21.8 19.1 75 3.0 SE 28 39 15 21 1014.0 1013.9 0.0
21/03:30am 23.8 22.3 19.5 77 2.8 SE 26 37 14 20 1014.0 1013.9 0.0
21/03:00am 23.7 22.2 19.4 77 2.8 SE 26 35 14 19 1013.9 1013.8 0.0
21/02:30am 23.7 22.3 19.6 78 2.6 SE 26 37 14 20 1014.1 1014.0 0.0
21/02:00am 23.6 23.0 19.7 79 2.5 SE 22 35 12 19 1014.6 1014.5 0.0
21/01:30am 23.6 22.9 19.5 78 2.6 SE 22 32 12 17 1015.0 1014.9 0.0
21/01:00am 23.5 22.4 19.4 78 2.6 SE 24 33 13 18 1015.3 1015.2 0.0
21/12:30am 23.5 23.2 19.6 79 2.5 SE 20 28 11 15 1015.7 1015.6 0.0
21/12:00am 23.4 22.2 19.3 78 2.6 SE 24 32 13 17 1015.8 1015.7 0.0
 
Date/Time
EST
Temp
°C
App
Temp
°C
Dew
Point
Rel
Hum
%
Delta-T
°C
Wind Press
QNH
hPa
Press
MSL
hPa
Rain
since 9 am
mm
Dir
 
Spd
km/h
Gust
km/h
Spd
kts
Gust
kts
20/11:30pm 23.4 22.6 19.3 78 2.6 SE 22 30 12 16 1016.1 1016.0 0.0
20/11:00pm 23.6 22.7 19.1 76 2.9 SE 22 33 12 18 1016.0 1015.9 0.0
20/10:30pm 23.6 23.1 19.1 76 2.9 SE 20 30 11 16 1016.3 1016.2 0.0
20/10:00pm 23.7 23.2 19.0 75 3.0 SE 20 30 11 16 1016.4 1016.3 0.0
20/09:30pm 23.8 22.4 18.7 73 3.2 SE 24 33 13 18 1016.5 1016.4 0.0
20/09:00pm 23.6 22.5 18.7 74 3.1 SE 22 32 12 17 1016.4 1016.3 0.0
20/08:30pm 23.5 23.0 18.6 74 3.1 ESE 19 28 10 15 1016.2 1016.1 0.0
20/08:00pm 23.6 22.9 18.7 74 3.1 ESE 20 30 11 16 1015.9 1015.8 0.0
20/07:30pm 23.8 23.2 18.9 74 3.1 ESE 20 32 11 17 1015.7 1015.6 0.0
20/07:00pm 24.0 23.1 19.1 74 3.1 SE 22 30 12 16 1015.4 1015.3 0.0
20/06:30pm 23.9 23.4 19.0 74 3.1 SE 20 30 11 16 1014.9 1014.8 0.0
20/06:00pm 24.1 23.6 19.0 73 3.2 SE 20 30 11 16 1014.8 1014.7 0.0
20/05:30pm 24.4 22.6 18.8 71 3.6 SE 26 33 14 18 1014.6 1014.5 0.0
20/05:00pm 24.7 22.8 18.6 69 3.9 SE 26 35 14 19 1014.5 1014.4 0.0
20/04:30pm 25.5 23.4 18.9 67 4.2 SE 28 37 15 20 1014.2 1014.1 0.0
20/04:00pm 25.5 23.4 18.9 67 4.2 SE 28 37 15 20 1013.8 1013.7 0.0
20/03:30pm 26.1 23.4 19.2 65 4.4 SE 32 41 17 22 1013.6 1013.5 0.0
20/03:00pm 27.0 24.7 19.4 63 4.9 SSE 30 39 16 21 1013.6 1013.5 0.0
20/02:30pm 27.7 24.4 19.2 60 5.5 SSE 35 44 19 24 1013.7 1013.6 0.0
20/02:00pm 27.5 24.4 19.6 62 5.1 SSE 35 46 19 25 1013.9 1013.8 0.0
20/01:30pm 27.3 23.9 18.9 60 5.4 SSE 35 44 19 24 1014.3 1014.2 0.0
20/01:00pm 27.4 24.0 18.9 59 5.5 SSE 35 46 19 25 1014.9 1014.8 0.0
20/12:30pm 26.7 22.7 18.6 61 5.2 SSE 37 46 20 25 1015.3 1015.2 0.0
20/12:00pm 27.1 23.3 18.9 61 5.3 SSE 37 48 20 26 1015.6 1015.5 0.0
20/11:30am 27.5 23.6 19.6 62 5.1 SSE 39 48 21 26 1015.8 1015.7 0.0
20/11:00am 27.1 23.3 18.9 61 5.3 SSE 37 50 20 27 1016.2 1016.1 0.0
20/10:30am 26.9 23.5 19.0 62 5.1 SSE 35 46 19 25 1016.7 1016.6 0.0
20/10:00am 26.7 23.5 18.6 61 5.2 SSE 33 46 18 25 1017.1 1017.0 0.0
20/09:30am 26.5 23.6 18.9 63 4.9 SSE 32 41 17 22 1017.2 1017.1 0.0
20/09:00am 26.4 23.6 19.0 63 4.7 SSE 32 43 17 23 1017.2 1017.1 0.0
20/08:30am 25.2 22.7 18.9 68 4.0 SSE 30 41 16 22 1016.9 1016.8 0.0
20/08:00am 24.9 22.3 18.6 68 4.0 SE 30 41 16 22 1016.8 1016.7 0.0
20/07:30am 24.1 22.4 19.0 73 3.2 SSE 26 35 14 19 1016.5 1016.4 0.0
20/07:00am 23.9 22.1 18.8 73 3.2 SSE 26 37 14 20 1016.0 1015.9 0.0
20/06:30am 23.2 21.5 18.9 77 2.7 SSE 26 33 14 18 1015.4 1015.3 0.0
20/06:00am 22.9 22.0 19.1 79 2.4 SSE 22 32 12 17 1015.0 1014.9 0.0
20/05:30am 23.1 20.9 18.8 77 2.7 SE 28 35 15 19 1014.7 1014.6 0.0
20/05:00am 23.1 21.7 18.8 77 2.7 SE 24 32 13 17 1014.5 1014.4 0.0
20/04:30am 23.1 21.9 19.3 79 2.4 SE 24 32 13 17 1014.5 1014.4 0.0
20/04:00am 23.3 22.1 19.2 78 2.6 SE 24 32 13 17 1014.5 1014.4 0.0
20/03:30am 23.1 21.8 19.1 78 2.5 SE 24 33 13 18 1014.6 1014.5 0.0
20/03:00am 23.0 21.7 19.0 78 2.5 SE 24 33 13 18 1014.7 1014.6 0.0
20/02:30am 23.2 21.9 19.1 78 2.6 SE 24 32 13 17 1015.0 1014.9 0.0
20/02:00am 23.2 21.8 18.7 76 2.8 SE 24 35 13 19 1015.2 1015.1 0.0
20/01:30am 23.2 22.1 18.7 76 2.8 SE 22 32 12 17 1015.6 1015.5 0.0
20/01:00am 23.4 22.8 18.9 76 2.9 SE 20 30 11 16 1016.0 1015.9 0.0
20/12:30am 23.5 22.5 18.8 75 3.0 SE 22 32 12 17 1016.3 1016.2 0.0
20/12:00am 23.4 22.3 18.7 75 3.0 SE 22 30 12 16 1016.7 1016.6 0.0
 
Date/Time
EST
Temp
°C
App
Temp
°C
Dew
Point
Rel
Hum
%
Delta-T
°C
Wind Press
QNH
hPa
Press
MSL
hPa
Rain
since 9 am
mm
Dir
 
Spd
km/h
Gust
km/h
Spd
kts
Gust
kts
19/11:30pm 23.5 21.8 18.2 72 3.3 SE 24 35 13 19 1017.1 1017.0 0.0
19/11:00pm 23.5 21.9 18.4 73 3.2 SE 24 35 13 19 1017.2 1017.1 0.0
19/10:30pm 23.6 22.1 18.5 73 3.2 SE 24 35 13 19 1017.3 1017.2 0.0
19/10:00pm 23.6 21.6 18.3 72 3.3 SE 26 35 14 19 1017.2 1017.1 0.0
19/09:30pm 23.5 22.0 18.6 74 3.1 SE 24 33 13 18 1017.2 1017.1 0.0
19/09:00pm 23.4 22.2 18.5 74 3.1 SE 22 32 12 17 1017.2 1017.1 0.0
19/08:30pm 23.5 21.9 18.4 73 3.2 SE 24 35 13 19 1017.0 1016.9 0.0
19/08:00pm 23.5 22.2 18.2 72 3.3 SE 22 33 12 18 1016.7 1016.6 0.0
19/07:30pm 23.6 22.0 18.3 72 3.3 SE 24 33 13 18 1016.3 1016.2 0.0
19/07:00pm 23.7 21.7 18.4 72 3.3 SE 26 35 14 19 1016.1 1016.0 0.0
19/06:30pm 23.7 21.4 18.4 72 3.3 SE 28 35 15 19 1015.6 1015.5 0.0
19/06:00pm 24.0 21.6 18.2 70 3.6 SE 28 39 15 21 1015.1 1015.0 0.0
19/05:30pm 24.7 22.4 18.4 68 4.0 SSE 28 37 15 20 1014.8 1014.7 0.0
19/05:00pm 25.3 22.3 17.7 62 4.8 SE 30 37 16 20 1014.6 1014.5 0.0
19/04:30pm 25.6 22.6 17.8 62 4.9 SE 30 41 16 22 1014.4 1014.3 0.0
19/04:00pm 26.1 22.8 18.0 61 5.1 SE 32 39 17 21 1014.2 1014.1 0.0
19/03:30pm 26.2 22.3 17.8 60 5.3 SSE 35 43 19 23 1014.3 1014.2 0.0
19/03:00pm 26.4 23.3 18.5 62 5.0 SSE 32 43 17 23 1014.4 1014.3 0.0
19/02:30pm 27.0 23.2 18.0 58 5.7 SSE 35 44 19 24 1014.8 1014.7 0.0
19/02:00pm 27.3 23.5 18.0 56 5.9 SSE 35 44 19 24 1015.2 1015.1 0.0
19/01:30pm 27.8 24.2 18.5 57 6.0 SSE 35 44 19 24 1015.6 1015.5 0.0
19/01:00pm 27.4 23.5 17.8 55 6.1 SSE 35 46 19 25 1016.0 1015.9 0.0
19/12:30pm 27.5 23.7 18.2 57 5.9 SSE 35 46 19 25 1016.4 1016.3 0.0
19/12:00pm 27.1 22.7 18.4 59 5.5 SSE 39 46 21 25 1016.8 1016.7 0.0
19/11:30am 26.9 23.3 18.5 60 5.4 SSE 35 46 19 25 1017.1 1017.0 0.0
19/11:00am 26.5 23.3 18.6 62 5.0 SSE 33 44 18 24 1017.6 1017.5 0.0
19/10:30am 26.5 23.4 18.9 63 4.9 SE 33 44 18 24 1017.8 1017.7 0.0
19/10:00am 26.2 23.4 19.1 65 4.6 SSE 32 41 17 22 1017.9 1017.8 0.0
19/09:30am 26.2 23.4 19.1 65 4.6 SSE 32 43 17 23 1017.9 1017.8 0.0
19/09:00am 25.8 22.8 19.0 66 4.3 SE 33 41 18 22 1017.8 1017.7 0.0
19/08:30am 25.3 22.5 19.0 68 4.0 SSE 32 43 17 23 1017.6 1017.5 0.0
19/08:00am 24.3 22.2 18.9 72 3.4 SE 28 39 15 21 1017.3 1017.2 0.0
19/07:30am 23.8 21.9 19.3 76 2.9 SE 28 37 15 20 1017.0 1016.9 0.0
19/07:00am 23.0 21.8 19.2 79 2.4 SE 24 32 13 17 1016.5 1016.4 0.0
19/06:30am 22.7 21.9 19.3 81 2.2 SE 22 32 12 17 1016.1 1016.0 0.0

Other Formats:

Comma delimited format used in spreadsheet applications
http://www.bom.gov.au/fwo/IDQ60801/IDQ60801.94188.axf

JavaScript Object Notation format (JSON) in row-major order
http://www.bom.gov.au/fwo/IDQ60801/IDQ60801.94188.json